sensor_id;sensor_type;location;lat;lon;timestamp;P1;durP1;ratioP1;P2;durP2;ratioP2
29002;SDS011;16102;57.138;-2.118;2022-10-17T00:02:26;3.00;;;0.80;;
29002;SDS011;16102;57.138;-2.118;2022-10-17T00:04:52;2.67;;;0.75;;
29002;SDS011;16102;57.138;-2.118;2022-10-17T00:07:20;2.72;;;0.55;;
29002;SDS011;16102;57.138;-2.118;2022-10-17T00:09:47;1.35;;;0.73;;
29002;SDS011;16102;57.138;-2.118;2022-10-17T00:12:13;2.20;;;0.63;;
29002;SDS011;16102;57.138;-2.118;2022-10-17T00:14:40;2.08;;;0.50;;
29002;SDS011;16102;57.138;-2.118;2022-10-17T00:17:08;0.75;;;0.40;;
29002;SDS011;16102;57.138;-2.118;2022-10-17T00:19:34;1.90;;;0.63;;
29002;SDS011;16102;57.138;-2.118;2022-10-17T00:22:01;1.67;;;0.60;;
29002;SDS011;16102;57.138;-2.118;2022-10-17T00:24:29;1.25;;;0.50;;
29002;SDS011;16102;57.138;-2.118;2022-10-17T00:26:56;1.63;;;0.57;;
29002;SDS011;16102;57.138;-2.118;2022-10-17T00:29:23;4.35;;;0.77;;
29002;SDS011;16102;57.138;-2.118;2022-10-17T00:31:53;5.57;;;0.88;;
29002;SDS011;16102;57.138;-2.118;2022-10-17T00:34:21;2.17;;;0.47;;
29002;SDS011;16102;57.138;-2.118;2022-10-17T00:36:49;2.58;;;0.98;;
29002;SDS011;16102;57.138;-2.118;2022-10-17T00:39:16;1.63;;;0.20;;
29002;SDS011;16102;57.138;-2.118;2022-10-17T00:41:44;2.45;;;0.40;;
29002;SDS011;16102;57.138;-2.118;2022-10-17T00:46:57;3.85;;;0.43;;
29002;SDS011;16102;57.138;-2.118;2022-10-17T00:49:32;1.55;;;0.52;;
29002;SDS011;16102;57.138;-2.118;2022-10-17T00:52:03;3.33;;;0.68;;
29002;SDS011;16102;57.138;-2.118;2022-10-17T00:54:38;3.10;;;0.60;;
29002;SDS011;16102;57.138;-2.118;2022-10-17T00:57:09;1.60;;;0.40;;
29002;SDS011;16102;57.138;-2.118;2022-10-17T00:59:38;6.95;;;1.02;;
29002;SDS011;16102;57.138;-2.118;2022-10-17T01:02:09;1.23;;;0.20;;
29002;SDS011;16102;57.138;-2.118;2022-10-17T01:04:42;4.38;;;0.50;;
29002;SDS011;16102;57.138;-2.118;2022-10-17T01:07:12;2.13;;;0.80;;
29002;SDS011;16102;57.138;-2.118;2022-10-17T01:09:39;1.08;;;0.43;;
29002;SDS011;16102;57.138;-2.118;2022-10-17T01:15:12;3.33;;;1.15;;
29002;SDS011;16102;57.138;-2.118;2022-10-17T01:23:04;1.48;;;0.60;;
29002;SDS011;16102;57.138;-2.118;2022-10-17T01:25:51;3.10;;;0.70;;
29002;SDS011;16102;57.138;-2.118;2022-10-17T01:31:12;0.52;;;0.22;;
29002;SDS011;16102;57.138;-2.118;2022-10-17T01:36:53;2.58;;;0.68;;
29002;SDS011;16102;57.138;-2.118;2022-10-17T01:42:29;3.47;;;0.35;;
29002;SDS011;16102;57.138;-2.118;2022-10-17T01:45:12;2.03;;;0.43;;
29002;SDS011;16102;57.138;-2.118;2022-10-17T01:47:46;4.97;;;0.60;;
29002;SDS011;16102;57.138;-2.118;2022-10-17T01:50:18;4.93;;;0.73;;
29002;SDS011;16102;57.138;-2.118;2022-10-17T01:52:52;5.38;;;0.57;;
29002;SDS011;16102;57.138;-2.118;2022-10-17T01:55:32;6.05;;;0.90;;
29002;SDS011;16102;57.138;-2.118;2022-10-17T01:58:04;2.88;;;0.55;;
29002;SDS011;16102;57.138;-2.118;2022-10-17T02:00:35;2.63;;;0.60;;
29002;SDS011;16102;57.138;-2.118;2022-10-17T02:03:06;5.35;;;0.60;;
29002;SDS011;16102;57.138;-2.118;2022-10-17T02:05:37;3.20;;;0.60;;
29002;SDS011;16102;57.138;-2.118;2022-10-17T02:08:05;2.40;;;0.82;;
29002;SDS011;16102;57.138;-2.118;2022-10-17T02:13:18;2.67;;;0.60;;
29002;SDS011;16102;57.138;-2.118;2022-10-17T02:19:03;6.40;;;1.30;;
29002;SDS011;16102;57.138;-2.118;2022-10-17T02:24:48;4.70;;;1.33;;
29002;SDS011;16102;57.138;-2.118;2022-10-17T02:27:30;5.13;;;1.10;;
29002;SDS011;16102;57.138;-2.118;2022-10-17T02:30:02;2.63;;;0.55;;
29002;SDS011;16102;57.138;-2.118;2022-10-17T02:35:22;2.88;;;0.60;;
29002;SDS011;16102;57.138;-2.118;2022-10-17T02:37:53;1.25;;;0.40;;
29002;SDS011;16102;57.138;-2.118;2022-10-17T02:40:22;3.75;;;1.00;;
29002;SDS011;16102;57.138;-2.118;2022-10-17T02:42:52;1.55;;;0.52;;
29002;SDS011;16102;57.138;-2.118;2022-10-17T02:45:20;16.67;;;1.35;;
29002;SDS011;16102;57.138;-2.118;2022-10-17T02:50:23;6.97;;;1.10;;
29002;SDS011;16102;57.138;-2.118;2022-10-17T02:52:58;5.32;;;0.88;;
29002;SDS011;16102;57.138;-2.118;2022-10-17T02:55:31;9.68;;;1.08;;
29002;SDS011;16102;57.138;-2.118;2022-10-17T02:58:03;5.60;;;1.45;;
29002;SDS011;16102;57.138;-2.118;2022-10-17T03:00:38;8.32;;;1.80;;
29002;SDS011;16102;57.138;-2.118;2022-10-17T03:05:54;7.72;;;1.27;;
29002;SDS011;16102;57.138;-2.118;2022-10-17T03:08:21;14.57;;;2.25;;
29002;SDS011;16102;57.138;-2.118;2022-10-17T03:10:49;10.63;;;1.33;;
29002;SDS011;16102;57.138;-2.118;2022-10-17T03:13:17;5.15;;;0.95;;
29002;SDS011;16102;57.138;-2.118;2022-10-17T03:15:48;6.65;;;1.58;;
29002;SDS011;16102;57.138;-2.118;2022-10-17T03:18:15;7.35;;;1.27;;
29002;SDS011;16102;57.138;-2.118;2022-10-17T03:20:42;7.82;;;1.50;;
29002;SDS011;16102;57.138;-2.118;2022-10-17T03:23:09;5.82;;;1.25;;
29002;SDS011;16102;57.138;-2.118;2022-10-17T03:25:36;12.13;;;1.88;;
29002;SDS011;16102;57.138;-2.118;2022-10-17T03:28:05;6.00;;;1.10;;
29002;SDS011;16102;57.138;-2.118;2022-10-17T03:30:32;9.25;;;1.73;;
29002;SDS011;16102;57.138;-2.118;2022-10-17T03:32:59;9.25;;;2.00;;
29002;SDS011;16102;57.138;-2.118;2022-10-17T03:35:26;6.35;;;1.00;;
29002;SDS011;16102;57.138;-2.118;2022-10-17T03:37:54;7.03;;;1.58;;
29002;SDS011;16102;57.138;-2.118;2022-10-17T03:40:21;4.30;;;1.10;;
29002;SDS011;16102;57.138;-2.118;2022-10-17T03:42:49;4.60;;;0.90;;
29002;SDS011;16102;57.138;-2.118;2022-10-17T03:45:16;4.60;;;1.42;;
29002;SDS011;16102;57.138;-2.118;2022-10-17T03:47:44;5.82;;;0.82;;
29002;SDS011;16102;57.138;-2.118;2022-10-17T03:50:11;5.57;;;0.95;;
29002;SDS011;16102;57.138;-2.118;2022-10-17T03:52:38;3.55;;;0.82;;
29002;SDS011;16102;57.138;-2.118;2022-10-17T03:55:05;5.13;;;0.90;;
29002;SDS011;16102;57.138;-2.118;2022-10-17T03:57:33;1.77;;;0.60;;
29002;SDS011;16102;57.138;-2.118;2022-10-17T04:00:02;6.78;;;1.38;;
29002;SDS011;16102;57.138;-2.118;2022-10-17T04:02:30;8.18;;;1.60;;
29002;SDS011;16102;57.138;-2.118;2022-10-17T04:05:00;4.30;;;0.80;;
29002;SDS011;16102;57.138;-2.118;2022-10-17T04:07:27;8.27;;;2.08;;
29002;SDS011;16102;57.138;-2.118;2022-10-17T04:09:54;4.80;;;1.10;;
29002;SDS011;16102;57.138;-2.118;2022-10-17T04:12:21;7.88;;;1.35;;
29002;SDS011;16102;57.138;-2.118;2022-10-17T04:14:49;8.57;;;1.75;;
29002;SDS011;16102;57.138;-2.118;2022-10-17T04:17:16;4.72;;;1.40;;
29002;SDS011;16102;57.138;-2.118;2022-10-17T04:19:43;6.65;;;1.10;;
29002;SDS011;16102;57.138;-2.118;2022-10-17T04:22:10;3.75;;;0.88;;
29002;SDS011;16102;57.138;-2.118;2022-10-17T04:24:37;4.00;;;0.70;;
29002;SDS011;16102;57.138;-2.118;2022-10-17T04:27:04;3.38;;;0.90;;
29002;SDS011;16102;57.138;-2.118;2022-10-17T04:29:31;5.88;;;0.95;;
29002;SDS011;16102;57.138;-2.118;2022-10-17T04:31:59;1.70;;;0.55;;
29002;SDS011;16102;57.138;-2.118;2022-10-17T04:34:26;3.95;;;0.90;;
29002;SDS011;16102;57.138;-2.118;2022-10-17T04:36:53;2.50;;;0.47;;
29002;SDS011;16102;57.138;-2.118;2022-10-17T04:39:19;1.58;;;0.40;;
29002;SDS011;16102;57.138;-2.118;2022-10-17T04:41:56;4.40;;;0.82;;
29002;SDS011;16102;57.138;-2.118;2022-10-17T04:44:23;6.00;;;0.77;;
29002;SDS011;16102;57.138;-2.118;2022-10-17T04:46:51;2.08;;;0.50;;
29002;SDS011;16102;57.138;-2.118;2022-10-17T04:49:18;3.13;;;0.68;;
29002;SDS011;16102;57.138;-2.118;2022-10-17T04:51:45;1.67;;;0.38;;
29002;SDS011;16102;57.138;-2.118;2022-10-17T04:54:12;1.83;;;0.43;;
29002;SDS011;16102;57.138;-2.118;2022-10-17T04:56:39;2.67;;;0.85;;
29002;SDS011;16102;57.138;-2.118;2022-10-17T04:59:06;4.10;;;0.85;;
29002;SDS011;16102;57.138;-2.118;2022-10-17T05:01:34;3.35;;;1.10;;
29002;SDS011;16102;57.138;-2.118;2022-10-17T05:04:01;11.95;;;2.08;;
29002;SDS011;16102;57.138;-2.118;2022-10-17T05:06:28;8.43;;;1.50;;
29002;SDS011;16102;57.138;-2.118;2022-10-17T05:08:57;11.25;;;2.33;;
29002;SDS011;16102;57.138;-2.118;2022-10-17T05:11:34;15.02;;;2.67;;
29002;SDS011;16102;57.138;-2.118;2022-10-17T05:14:01;9.75;;;2.92;;
29002;SDS011;16102;57.138;-2.118;2022-10-17T05:16:29;10.88;;;1.75;;
29002;SDS011;16102;57.138;-2.118;2022-10-17T05:18:56;15.77;;;3.20;;
29002;SDS011;16102;57.138;-2.118;2022-10-17T05:21:25;14.40;;;2.70;;
29002;SDS011;16102;57.138;-2.118;2022-10-17T05:23:52;14.23;;;3.45;;
29002;SDS011;16102;57.138;-2.118;2022-10-17T05:26:20;13.32;;;2.22;;
29002;SDS011;16102;57.138;-2.118;2022-10-17T05:28:47;16.95;;;3.78;;
29002;SDS011;16102;57.138;-2.118;2022-10-17T05:31:15;21.05;;;3.47;;
29002;SDS011;16102;57.138;-2.118;2022-10-17T05:33:42;22.27;;;4.00;;
29002;SDS011;16102;57.138;-2.118;2022-10-17T05:36:09;11.10;;;2.70;;
29002;SDS011;16102;57.138;-2.118;2022-10-17T05:38:37;27.52;;;3.60;;
29002;SDS011;16102;57.138;-2.118;2022-10-17T05:41:05;17.30;;;3.20;;
29002;SDS011;16102;57.138;-2.118;2022-10-17T05:43:32;20.52;;;4.22;;
29002;SDS011;16102;57.138;-2.118;2022-10-17T05:46:05;18.63;;;3.50;;
29002;SDS011;16102;57.138;-2.118;2022-10-17T05:48:32;21.17;;;4.18;;
29002;SDS011;16102;57.138;-2.118;2022-10-17T05:51:01;11.95;;;2.30;;
29002;SDS011;16102;57.138;-2.118;2022-10-17T05:53:34;23.88;;;4.00;;
29002;SDS011;16102;57.138;-2.118;2022-10-17T05:56:04;20.88;;;3.67;;
29002;SDS011;16102;57.138;-2.118;2022-10-17T05:58:33;10.40;;;1.90;;
29002;SDS011;16102;57.138;-2.118;2022-10-17T06:01:15;14.48;;;2.28;;
29002;SDS011;16102;57.138;-2.118;2022-10-17T06:03:43;9.88;;;2.42;;
29002;SDS011;16102;57.138;-2.118;2022-10-17T06:06:13;14.45;;;2.15;;
29002;SDS011;16102;57.138;-2.118;2022-10-17T06:08:41;12.27;;;2.05;;
29002;SDS011;16102;57.138;-2.118;2022-10-17T06:11:08;10.27;;;2.10;;
29002;SDS011;16102;57.138;-2.118;2022-10-17T06:13:37;7.38;;;1.20;;
29002;SDS011;16102;57.138;-2.118;2022-10-17T06:16:05;6.28;;;1.45;;
29002;SDS011;16102;57.138;-2.118;2022-10-17T06:18:32;4.35;;;1.60;;
29002;SDS011;16102;57.138;-2.118;2022-10-17T06:21:06;7.28;;;1.40;;
29002;SDS011;16102;57.138;-2.118;2022-10-17T06:23:36;3.47;;;0.90;;
29002;SDS011;16102;57.138;-2.118;2022-10-17T06:26:04;3.28;;;0.82;;
29002;SDS011;16102;57.138;-2.118;2022-10-17T06:28:32;4.47;;;1.13;;
29002;SDS011;16102;57.138;-2.118;2022-10-17T06:31:03;4.35;;;1.17;;
29002;SDS011;16102;57.138;-2.118;2022-10-17T06:33:35;3.95;;;0.77;;
29002;SDS011;16102;57.138;-2.118;2022-10-17T06:36:03;3.45;;;0.60;;
29002;SDS011;16102;57.138;-2.118;2022-10-17T06:38:34;4.82;;;0.80;;
29002;SDS011;16102;57.138;-2.118;2022-10-17T06:41:06;6.63;;;1.33;;
29002;SDS011;16102;57.138;-2.118;2022-10-17T06:43:35;5.97;;;1.20;;
29002;SDS011;16102;57.138;-2.118;2022-10-17T06:46:03;1.40;;;0.60;;
29002;SDS011;16102;57.138;-2.118;2022-10-17T06:48:30;3.63;;;0.70;;
29002;SDS011;16102;57.138;-2.118;2022-10-17T06:51:01;1.92;;;0.60;;
29002;SDS011;16102;57.138;-2.118;2022-10-17T06:53:30;5.18;;;1.65;;
29002;SDS011;16102;57.138;-2.118;2022-10-17T06:55:59;5.20;;;0.80;;
29002;SDS011;16102;57.138;-2.118;2022-10-17T06:58:31;8.48;;;1.23;;
29002;SDS011;16102;57.138;-2.118;2022-10-17T07:01:04;7.78;;;0.98;;
29002;SDS011;16102;57.138;-2.118;2022-10-17T07:03:32;3.00;;;0.75;;
29002;SDS011;16102;57.138;-2.118;2022-10-17T07:05:59;7.60;;;0.88;;
29002;SDS011;16102;57.138;-2.118;2022-10-17T07:08:27;11.02;;;1.40;;
29002;SDS011;16102;57.138;-2.118;2022-10-17T07:10:54;2.17;;;0.50;;
29002;SDS011;16102;57.138;-2.118;2022-10-17T07:13:22;6.82;;;1.35;;
29002;SDS011;16102;57.138;-2.118;2022-10-17T07:15:49;2.85;;;0.90;;
29002;SDS011;16102;57.138;-2.118;2022-10-17T07:18:16;6.85;;;1.33;;
29002;SDS011;16102;57.138;-2.118;2022-10-17T07:20:43;2.03;;;0.50;;
29002;SDS011;16102;57.138;-2.118;2022-10-17T07:23:17;2.92;;;0.77;;
29002;SDS011;16102;57.138;-2.118;2022-10-17T07:25:44;7.95;;;1.52;;
29002;SDS011;16102;57.138;-2.118;2022-10-17T07:28:11;3.97;;;1.00;;
29002;SDS011;16102;57.138;-2.118;2022-10-17T07:30:39;5.78;;;0.98;;
29002;SDS011;16102;57.138;-2.118;2022-10-17T07:33:07;2.30;;;0.73;;
29002;SDS011;16102;57.138;-2.118;2022-10-17T07:35:34;4.75;;;1.10;;
29002;SDS011;16102;57.138;-2.118;2022-10-17T07:38:06;3.30;;;0.70;;
29002;SDS011;16102;57.138;-2.118;2022-10-17T07:40:33;2.10;;;0.60;;
29002;SDS011;16102;57.138;-2.118;2022-10-17T07:43:00;2.35;;;0.50;;
29002;SDS011;16102;57.138;-2.118;2022-10-17T07:45:27;6.82;;;1.73;;
29002;SDS011;16102;57.138;-2.118;2022-10-17T07:47:55;7.03;;;0.82;;
29002;SDS011;16102;57.138;-2.118;2022-10-17T07:50:23;3.90;;;0.98;;
29002;SDS011;16102;57.138;-2.118;2022-10-17T07:52:50;4.68;;;1.08;;
29002;SDS011;16102;57.138;-2.118;2022-10-17T07:55:17;2.78;;;0.80;;
29002;SDS011;16102;57.138;-2.118;2022-10-17T07:57:44;3.38;;;0.70;;
29002;SDS011;16102;57.138;-2.118;2022-10-17T08:00:11;1.20;;;0.47;;
29002;SDS011;16102;57.138;-2.118;2022-10-17T08:02:38;2.55;;;0.88;;
29002;SDS011;16102;57.138;-2.118;2022-10-17T08:05:05;6.55;;;1.13;;
29002;SDS011;16102;57.138;-2.118;2022-10-17T08:07:33;11.43;;;1.30;;
29002;SDS011;16102;57.138;-2.118;2022-10-17T08:10:00;2.92;;;0.80;;
29002;SDS011;16102;57.138;-2.118;2022-10-17T08:12:27;9.98;;;1.33;;
29002;SDS011;16102;57.138;-2.118;2022-10-17T08:14:58;12.60;;;3.25;;
29002;SDS011;16102;57.138;-2.118;2022-10-17T08:17:26;6.45;;;1.55;;
29002;SDS011;16102;57.138;-2.118;2022-10-17T08:19:53;5.38;;;1.38;;
29002;SDS011;16102;57.138;-2.118;2022-10-17T08:22:20;8.85;;;1.48;;
29002;SDS011;16102;57.138;-2.118;2022-10-17T08:24:47;1.98;;;0.65;;
29002;SDS011;16102;57.138;-2.118;2022-10-17T08:27:14;5.70;;;1.27;;
29002;SDS011;16102;57.138;-2.118;2022-10-17T08:29:46;8.23;;;1.60;;
29002;SDS011;16102;57.138;-2.118;2022-10-17T08:32:19;5.88;;;1.65;;
29002;SDS011;16102;57.138;-2.118;2022-10-17T08:34:47;4.55;;;0.98;;
29002;SDS011;16102;57.138;-2.118;2022-10-17T08:37:15;2.83;;;1.13;;
29002;SDS011;16102;57.138;-2.118;2022-10-17T08:39:42;2.85;;;0.73;;
29002;SDS011;16102;57.138;-2.118;2022-10-17T08:47:50;7.88;;;1.00;;
29002;SDS011;16102;57.138;-2.118;2022-10-17T08:53:09;11.18;;;1.88;;
29002;SDS011;16102;57.138;-2.118;2022-10-17T08:55:47;8.15;;;0.95;;
29002;SDS011;16102;57.138;-2.118;2022-10-17T08:58:18;2.55;;;0.90;;
29002;SDS011;16102;57.138;-2.118;2022-10-17T09:03:48;17.98;;;3.83;;
29002;SDS011;16102;57.138;-2.118;2022-10-17T09:06:36;7.63;;;1.67;;
29002;SDS011;16102;57.138;-2.118;2022-10-17T09:20:43;14.77;;;2.10;;
29002;SDS011;16102;57.138;-2.118;2022-10-17T09:23:19;6.80;;;1.40;;
29002;SDS011;16102;57.138;-2.118;2022-10-17T09:25:53;10.73;;;1.85;;
29002;SDS011;16102;57.138;-2.118;2022-10-17T09:28:31;15.52;;;3.53;;
29002;SDS011;16102;57.138;-2.118;2022-10-17T09:31:06;7.90;;;1.88;;
29002;SDS011;16102;57.138;-2.118;2022-10-17T09:33:41;15.07;;;2.90;;
29002;SDS011;16102;57.138;-2.118;2022-10-17T09:38:48;15.02;;;2.47;;
29002;SDS011;16102;57.138;-2.118;2022-10-17T09:41:25;13.60;;;2.72;;
29002;SDS011;16102;57.138;-2.118;2022-10-17T09:44:21;10.00;;;2.55;;
29002;SDS011;16102;57.138;-2.118;2022-10-17T09:47:03;13.02;;;2.30;;
29002;SDS011;16102;57.138;-2.118;2022-10-17T09:49:34;10.93;;;2.47;;
29002;SDS011;16102;57.138;-2.118;2022-10-17T09:52:05;17.55;;;2.33;;
29002;SDS011;16102;57.138;-2.118;2022-10-17T09:54:44;8.30;;;1.83;;
29002;SDS011;16102;57.138;-2.118;2022-10-17T09:57:17;7.53;;;2.10;;
29002;SDS011;16102;57.138;-2.118;2022-10-17T09:59:47;21.08;;;4.00;;
29002;SDS011;16102;57.138;-2.118;2022-10-17T10:02:24;15.27;;;2.45;;
29002;SDS011;16102;57.138;-2.118;2022-10-17T10:04:54;9.32;;;2.78;;
29002;SDS011;16102;57.138;-2.118;2022-10-17T10:07:35;11.23;;;2.20;;
29002;SDS011;16102;57.138;-2.118;2022-10-17T10:10:05;7.45;;;1.80;;
29002;SDS011;16102;57.138;-2.118;2022-10-17T10:13:00;6.38;;;1.63;;
29002;SDS011;16102;57.138;-2.118;2022-10-17T10:15:46;13.68;;;1.85;;
29002;SDS011;16102;57.138;-2.118;2022-10-17T10:21:03;15.00;;;2.78;;
29002;SDS011;16102;57.138;-2.118;2022-10-17T10:23:30;10.30;;;3.22;;
29002;SDS011;16102;57.138;-2.118;2022-10-17T10:26:00;10.52;;;1.92;;
29002;SDS011;16102;57.138;-2.118;2022-10-17T10:28:33;9.13;;;2.25;;
29002;SDS011;16102;57.138;-2.118;2022-10-17T10:31:02;17.77;;;3.97;;
29002;SDS011;16102;57.138;-2.118;2022-10-17T10:33:32;6.47;;;1.85;;
29002;SDS011;16102;57.138;-2.118;2022-10-17T10:36:06;7.68;;;2.10;;
29002;SDS011;16102;57.138;-2.118;2022-10-17T10:38:34;22.20;;;3.38;;
29002;SDS011;16102;57.138;-2.118;2022-10-17T10:41:07;12.43;;;3.45;;
29002;SDS011;16102;57.138;-2.118;2022-10-17T10:43:37;10.60;;;3.50;;
29002;SDS011;16102;57.138;-2.118;2022-10-17T10:46:25;12.15;;;2.58;;
29002;SDS011;16102;57.138;-2.118;2022-10-17T10:48:58;13.88;;;2.45;;
29002;SDS011;16102;57.138;-2.118;2022-10-17T10:51:34;10.75;;;2.72;;
29002;SDS011;16102;57.138;-2.118;2022-10-17T10:54:28;17.67;;;3.25;;
29002;SDS011;16102;57.138;-2.118;2022-10-17T10:57:11;10.13;;;1.92;;
29002;SDS011;16102;57.138;-2.118;2022-10-17T11:02:35;16.50;;;3.17;;
29002;SDS011;16102;57.138;-2.118;2022-10-17T11:05:18;22.33;;;3.13;;
29002;SDS011;16102;57.138;-2.118;2022-10-17T11:13:40;16.27;;;2.97;;
29002;SDS011;16102;57.138;-2.118;2022-10-17T11:18:54;16.65;;;3.30;;
29002;SDS011;16102;57.138;-2.118;2022-10-17T11:24:32;7.95;;;2.05;;
29002;SDS011;16102;57.138;-2.118;2022-10-17T11:27:11;11.85;;;2.42;;
29002;SDS011;16102;57.138;-2.118;2022-10-17T11:29:38;5.50;;;2.10;;
29002;SDS011;16102;57.138;-2.118;2022-10-17T11:32:08;9.02;;;1.80;;
29002;SDS011;16102;57.138;-2.118;2022-10-17T11:34:49;10.60;;;1.90;;
29002;SDS011;16102;57.138;-2.118;2022-10-17T11:37:32;9.00;;;1.92;;
29002;SDS011;16102;57.138;-2.118;2022-10-17T11:40:13;6.28;;;1.38;;
29002;SDS011;16102;57.138;-2.118;2022-10-17T11:42:58;5.25;;;1.65;;
29002;SDS011;16102;57.138;-2.118;2022-10-17T11:45:28;8.35;;;1.42;;
29002;SDS011;16102;57.138;-2.118;2022-10-17T11:48:01;6.18;;;1.25;;
29002;SDS011;16102;57.138;-2.118;2022-10-17T11:50:34;7.90;;;1.92;;
29002;SDS011;16102;57.138;-2.118;2022-10-17T11:53:25;7.10;;;1.45;;
29002;SDS011;16102;57.138;-2.118;2022-10-17T11:55:57;16.40;;;2.55;;
29002;SDS011;16102;57.138;-2.118;2022-10-17T11:58:33;11.02;;;1.98;;
29002;SDS011;16102;57.138;-2.118;2022-10-17T12:12:23;4.53;;;0.85;;
29002;SDS011;16102;57.138;-2.118;2022-10-17T12:17:39;4.57;;;1.45;;
29002;SDS011;16102;57.138;-2.118;2022-10-17T12:22:52;8.75;;;1.80;;
29002;SDS011;16102;57.138;-2.118;2022-10-17T12:25:23;7.72;;;1.38;;
29002;SDS011;16102;57.138;-2.118;2022-10-17T12:38:43;5.90;;;1.52;;
29002;SDS011;16102;57.138;-2.118;2022-10-17T12:41:15;5.25;;;1.33;;
29002;SDS011;16102;57.138;-2.118;2022-10-17T13:00:41;5.93;;;1.17;;
29002;SDS011;16102;57.138;-2.118;2022-10-17T13:03:31;1.85;;;0.73;;
29002;SDS011;16102;57.138;-2.118;2022-10-17T13:06:01;1.67;;;0.50;;
29002;SDS011;16102;57.138;-2.118;2022-10-17T13:08:36;5.63;;;1.35;;
29002;SDS011;16102;57.138;-2.118;2022-10-17T13:11:19;4.28;;;1.10;;
29002;SDS011;16102;57.138;-2.118;2022-10-17T13:13:51;5.15;;;1.27;;
29002;SDS011;16102;57.138;-2.118;2022-10-17T13:16:28;3.08;;;0.90;;
29002;SDS011;16102;57.138;-2.118;2022-10-17T13:19:11;2.63;;;0.70;;
29002;SDS011;16102;57.138;-2.118;2022-10-17T13:21:54;4.45;;;0.85;;
29002;SDS011;16102;57.138;-2.118;2022-10-17T13:27:00;2.97;;;1.85;;
29002;SDS011;16102;57.138;-2.118;2022-10-17T13:29:29;1.92;;;0.60;;
29002;SDS011;16102;57.138;-2.118;2022-10-17T13:31:58;2.28;;;0.80;;
29002;SDS011;16102;57.138;-2.118;2022-10-17T13:34:30;3.53;;;0.60;;
29002;SDS011;16102;57.138;-2.118;2022-10-17T13:37:02;2.47;;;0.77;;
29002;SDS011;16102;57.138;-2.118;2022-10-17T13:39:40;7.63;;;1.60;;
29002;SDS011;16102;57.138;-2.118;2022-10-17T13:42:24;4.28;;;1.15;;
29002;SDS011;16102;57.138;-2.118;2022-10-17T13:44:56;2.60;;;0.52;;
29002;SDS011;16102;57.138;-2.118;2022-10-17T13:47:26;4.20;;;0.93;;
29002;SDS011;16102;57.138;-2.118;2022-10-17T13:49:54;3.45;;;1.02;;
29002;SDS011;16102;57.138;-2.118;2022-10-17T13:52:24;7.53;;;1.38;;
29002;SDS011;16102;57.138;-2.118;2022-10-17T13:54:55;3.03;;;1.20;;
29002;SDS011;16102;57.138;-2.118;2022-10-17T13:57:42;3.72;;;1.05;;
29002;SDS011;16102;57.138;-2.118;2022-10-17T14:00:18;2.28;;;0.55;;
29002;SDS011;16102;57.138;-2.118;2022-10-17T14:02:47;2.35;;;0.50;;
29002;SDS011;16102;57.138;-2.118;2022-10-17T14:05:17;6.53;;;0.80;;
29002;SDS011;16102;57.138;-2.118;2022-10-17T14:07:59;6.68;;;0.82;;
29002;SDS011;16102;57.138;-2.118;2022-10-17T14:10:47;2.83;;;0.77;;
29002;SDS011;16102;57.138;-2.118;2022-10-17T14:13:21;4.13;;;1.92;;
29002;SDS011;16102;57.138;-2.118;2022-10-17T14:15:52;3.25;;;0.68;;
29002;SDS011;16102;57.138;-2.118;2022-10-17T14:18:24;1.13;;;0.68;;
29002;SDS011;16102;57.138;-2.118;2022-10-17T14:21:00;2.50;;;1.05;;
29002;SDS011;16102;57.138;-2.118;2022-10-17T14:23:48;3.22;;;0.90;;
29002;SDS011;16102;57.138;-2.118;2022-10-17T14:26:21;6.00;;;2.45;;
29002;SDS011;16102;57.138;-2.118;2022-10-17T14:28:50;4.65;;;1.75;;
29002;SDS011;16102;57.138;-2.118;2022-10-17T14:31:45;5.03;;;1.33;;
29002;SDS011;16102;57.138;-2.118;2022-10-17T14:34:19;5.90;;;1.10;;
29002;SDS011;16102;57.138;-2.118;2022-10-17T14:36:53;5.90;;;0.98;;
29002;SDS011;16102;57.138;-2.118;2022-10-17T14:39:21;2.67;;;0.57;;
29002;SDS011;16102;57.138;-2.118;2022-10-17T14:41:49;5.15;;;1.17;;
29002;SDS011;16102;57.138;-2.118;2022-10-17T14:44:25;8.35;;;1.35;;
29002;SDS011;16102;57.138;-2.118;2022-10-17T14:46:56;3.83;;;1.27;;
29002;SDS011;16102;57.138;-2.118;2022-10-17T14:49:39;4.18;;;1.30;;
29002;SDS011;16102;57.138;-2.118;2022-10-17T14:52:11;4.43;;;1.30;;
29002;SDS011;16102;57.138;-2.118;2022-10-17T14:54:43;5.70;;;1.70;;
29002;SDS011;16102;57.138;-2.118;2022-10-17T14:59:55;4.65;;;1.48;;
29002;SDS011;16102;57.138;-2.118;2022-10-17T15:02:24;2.97;;;1.38;;
29002;SDS011;16102;57.138;-2.118;2022-10-17T15:04:53;8.65;;;1.90;;
29002;SDS011;16102;57.138;-2.118;2022-10-17T15:07:20;2.58;;;0.77;;
29002;SDS011;16102;57.138;-2.118;2022-10-17T15:09:50;3.28;;;0.80;;
29002;SDS011;16102;57.138;-2.118;2022-10-17T15:12:19;5.32;;;1.73;;
29002;SDS011;16102;57.138;-2.118;2022-10-17T15:14:48;7.70;;;1.98;;
29002;SDS011;16102;57.138;-2.118;2022-10-17T15:17:23;1.58;;;0.70;;
29002;SDS011;16102;57.138;-2.118;2022-10-17T15:19:53;2.38;;;0.80;;
29002;SDS011;16102;57.138;-2.118;2022-10-17T15:22:20;3.05;;;1.05;;
29002;SDS011;16102;57.138;-2.118;2022-10-17T15:24:47;3.92;;;1.10;;
29002;SDS011;16102;57.138;-2.118;2022-10-17T15:27:16;3.95;;;1.23;;
29002;SDS011;16102;57.138;-2.118;2022-10-17T15:29:44;3.83;;;1.05;;
29002;SDS011;16102;57.138;-2.118;2022-10-17T15:32:11;4.22;;;0.77;;
29002;SDS011;16102;57.138;-2.118;2022-10-17T15:34:39;3.97;;;0.65;;
29002;SDS011;16102;57.138;-2.118;2022-10-17T15:37:13;1.40;;;0.50;;
29002;SDS011;16102;57.138;-2.118;2022-10-17T15:39:48;2.50;;;0.88;;
29002;SDS011;16102;57.138;-2.118;2022-10-17T15:42:25;2.55;;;0.60;;
29002;SDS011;16102;57.138;-2.118;2022-10-17T15:44:57;2.75;;;0.60;;
29002;SDS011;16102;57.138;-2.118;2022-10-17T15:47:25;2.28;;;0.70;;
29002;SDS011;16102;57.138;-2.118;2022-10-17T15:49:56;2.88;;;0.88;;
29002;SDS011;16102;57.138;-2.118;2022-10-17T15:52:24;4.28;;;0.70;;
29002;SDS011;16102;57.138;-2.118;2022-10-17T15:54:53;2.65;;;0.73;;
29002;SDS011;16102;57.138;-2.118;2022-10-17T15:57:26;7.32;;;0.82;;
29002;SDS011;16102;57.138;-2.118;2022-10-17T15:59:55;1.45;;;0.40;;
29002;SDS011;16102;57.138;-2.118;2022-10-17T16:02:24;2.25;;;0.40;;
29002;SDS011;16102;57.138;-2.118;2022-10-17T16:04:52;1.83;;;0.73;;
29002;SDS011;16102;57.138;-2.118;2022-10-17T16:07:19;3.42;;;0.30;;
29002;SDS011;16102;57.138;-2.118;2022-10-17T16:09:47;5.38;;;0.80;;
29002;SDS011;16102;57.138;-2.118;2022-10-17T16:12:26;3.65;;;0.80;;
29002;SDS011;16102;57.138;-2.118;2022-10-17T16:14:54;3.15;;;0.77;;
29002;SDS011;16102;57.138;-2.118;2022-10-17T16:17:22;2.35;;;0.70;;
29002;SDS011;16102;57.138;-2.118;2022-10-17T16:19:49;5.05;;;1.00;;
29002;SDS011;16102;57.138;-2.118;2022-10-17T16:22:21;2.95;;;1.33;;
29002;SDS011;16102;57.138;-2.118;2022-10-17T16:24:57;5.50;;;2.78;;
29002;SDS011;16102;57.138;-2.118;2022-10-17T16:27:32;5.20;;;2.63;;
29002;SDS011;16102;57.138;-2.118;2022-10-17T16:30:00;5.03;;;2.10;;
29002;SDS011;16102;57.138;-2.118;2022-10-17T16:32:27;2.45;;;1.45;;
29002;SDS011;16102;57.138;-2.118;2022-10-17T16:34:54;3.90;;;1.42;;
29002;SDS011;16102;57.138;-2.118;2022-10-17T16:37:22;4.03;;;1.27;;
29002;SDS011;16102;57.138;-2.118;2022-10-17T16:39:49;1.45;;;0.90;;
29002;SDS011;16102;57.138;-2.118;2022-10-17T16:42:21;3.28;;;0.88;;
29002;SDS011;16102;57.138;-2.118;2022-10-17T16:44:48;2.55;;;0.70;;
29002;SDS011;16102;57.138;-2.118;2022-10-17T16:47:16;2.83;;;0.88;;
29002;SDS011;16102;57.138;-2.118;2022-10-17T16:49:43;3.90;;;0.65;;
29002;SDS011;16102;57.138;-2.118;2022-10-17T16:52:10;1.00;;;0.60;;
29002;SDS011;16102;57.138;-2.118;2022-10-17T16:54:38;3.30;;;0.63;;
29002;SDS011;16102;57.138;-2.118;2022-10-17T16:57:05;1.35;;;0.60;;
29002;SDS011;16102;57.138;-2.118;2022-10-17T16:59:31;0.95;;;0.60;;
29002;SDS011;16102;57.138;-2.118;2022-10-17T17:01:58;4.90;;;0.95;;
29002;SDS011;16102;57.138;-2.118;2022-10-17T17:04:25;1.65;;;0.68;;